createdAt,value
2018-07-08T00:01:00.413Z,2.10
2018-07-08T00:03:35.704Z,1.80
2018-07-08T00:06:10.818Z,1.87
2018-07-08T00:08:47.675Z,1.87
2018-07-08T00:11:21.321Z,1.98
2018-07-08T00:13:56.118Z,2.10
2018-07-08T00:16:30.718Z,1.90
2018-07-08T00:19:04.234Z,1.70
2018-07-08T00:24:41.751Z,1.60
2018-07-08T00:27:16.257Z,1.73
2018-07-08T00:29:50.317Z,2.30
2018-07-08T00:32:24.323Z,2.63
2018-07-08T00:34:58.137Z,2.22
2018-07-08T00:37:32.154Z,1.97
2018-07-08T00:40:05.417Z,1.90
2018-07-08T00:42:39.454Z,1.70
2018-07-08T00:45:14.084Z,1.77
2018-07-08T00:47:46.892Z,1.40
2018-07-08T00:50:21.181Z,2.00
2018-07-08T00:52:52.916Z,2.53
2018-07-08T00:55:27.037Z,2.30
2018-07-08T00:58:02.010Z,1.60
2018-07-08T01:00:40.606Z,2.00
2018-07-08T01:03:14.229Z,1.80
2018-07-08T01:05:48.182Z,1.97
2018-07-08T01:08:21.550Z,1.63
2018-07-08T01:10:55.420Z,2.00
2018-07-08T01:13:29.484Z,1.50
2018-07-08T01:16:01.651Z,1.90
2018-07-08T01:18:36.051Z,2.10
2018-07-08T01:21:09.901Z,1.93
2018-07-08T01:23:44.122Z,2.27
2018-07-08T01:26:18.009Z,2.30
2018-07-08T01:28:52.181Z,2.10
2018-07-08T01:31:26.410Z,2.37
2018-07-08T01:34:00.822Z,2.27
2018-07-08T01:36:35.188Z,1.67
2018-07-08T01:39:10.778Z,2.20
2018-07-08T01:41:44.188Z,1.70
2018-07-08T01:47:23.014Z,1.80
2018-07-08T01:49:57.527Z,2.27
2018-07-08T01:52:31.968Z,2.10
2018-07-08T01:55:05.863Z,1.90
2018-07-08T01:57:40.398Z,2.03
2018-07-08T02:00:14.469Z,2.00
2018-07-08T02:02:48.168Z,1.90
2018-07-08T02:05:21.777Z,1.57
2018-07-08T02:07:54.356Z,1.95
2018-07-08T02:10:29.377Z,2.07
2018-07-08T02:13:03.498Z,2.03
2018-07-08T02:15:39.303Z,1.73
2018-07-08T02:18:14.290Z,1.57
2018-07-08T02:20:47.859Z,1.60
2018-07-08T02:23:21.993Z,1.67
2018-07-08T02:25:56.382Z,1.80
2018-07-08T02:28:28.714Z,1.70
2018-07-08T02:31:02.369Z,2.20
2018-07-08T02:33:36.373Z,1.87
2018-07-08T02:36:10.534Z,1.60
2018-07-08T02:38:45.994Z,2.10
2018-07-08T02:41:19.823Z,1.90
2018-07-08T02:43:53.761Z,2.10
2018-07-08T02:46:29.085Z,1.92
2018-07-08T02:49:02.838Z,1.87
2018-07-08T02:51:41.169Z,2.00
2018-07-08T02:54:15.194Z,2.17
2018-07-08T02:56:49.561Z,1.40
2018-07-08T02:59:21.651Z,2.05
2018-07-08T03:01:55.673Z,2.30
2018-07-08T03:04:29.633Z,1.60
2018-07-08T03:07:04.011Z,2.02
2018-07-08T03:09:37.727Z,1.95
2018-07-08T03:12:12.627Z,2.02
2018-07-08T03:14:48.149Z,1.70
2018-07-08T03:17:20.515Z,1.97
2018-07-08T03:19:54.123Z,1.63
2018-07-08T03:22:28.220Z,1.57
2018-07-08T03:25:02.354Z,1.72
2018-07-08T03:27:35.820Z,1.67
2018-07-08T03:30:09.342Z,1.90
2018-07-08T03:32:43.489Z,1.40
2018-07-08T03:35:17.436Z,1.50
2018-07-08T03:37:51.482Z,1.67
2018-07-08T03:40:23.539Z,2.17
2018-07-08T03:42:57.748Z,1.98
2018-07-08T03:45:31.872Z,2.35
2018-07-08T03:48:05.513Z,1.60
2018-07-08T03:50:39.620Z,1.95
2018-07-08T03:53:15.486Z,1.52
2018-07-08T03:55:49.953Z,1.65
2018-07-08T03:58:23.556Z,2.37
2018-07-08T04:00:57.620Z,1.40
2018-07-08T04:03:31.417Z,2.20
2018-07-08T04:09:11.851Z,1.65
2018-07-08T04:11:45.681Z,1.87
2018-07-08T04:14:20.073Z,1.85
2018-07-08T04:16:55.064Z,1.90
2018-07-08T04:19:29.855Z,1.95
2018-07-08T04:22:03.735Z,1.55
2018-07-08T04:24:38.098Z,2.00
2018-07-08T04:27:12.047Z,1.70
2018-07-08T04:29:45.038Z,2.25
2018-07-08T04:32:18.926Z,1.77
2018-07-08T04:34:55.570Z,1.85
2018-07-08T04:37:32.945Z,1.90
2018-07-08T04:40:06.827Z,1.75
2018-07-08T04:42:40.989Z,2.00
2018-07-08T04:45:16.832Z,2.08
2018-07-08T04:47:54.333Z,2.00
2018-07-08T04:50:28.896Z,1.92
2018-07-08T04:53:04.452Z,1.60
2018-07-08T04:55:40.958Z,2.00
2018-07-08T04:58:14.969Z,1.47
2018-07-08T05:00:48.977Z,1.90
2018-07-08T05:03:23.110Z,2.07
2018-07-08T05:05:56.827Z,2.15
2018-07-08T05:08:30.761Z,1.98
2018-07-08T05:43:35.419Z,2.20
2018-07-08T05:46:07.958Z,1.62
2018-07-08T05:48:41.836Z,1.75
2018-07-08T05:51:15.828Z,2.67
2018-07-08T05:53:49.864Z,2.10
2018-07-08T05:56:23.741Z,1.80
2018-07-08T05:58:57.699Z,2.58
2018-07-08T06:01:33.501Z,1.87
2018-07-08T06:04:07.267Z,1.90
2018-07-08T06:06:41.177Z,2.20
2018-07-08T06:09:14.717Z,2.15
2018-07-08T06:11:47.049Z,1.77
2018-07-08T06:14:20.503Z,1.67
2018-07-08T06:16:54.880Z,1.70
2018-07-08T06:19:28.822Z,1.90
2018-07-08T06:22:02.343Z,1.80
2018-07-08T06:24:36.369Z,2.75
2018-07-08T06:27:10.400Z,1.77
2018-07-08T06:29:44.453Z,2.50
2018-07-08T06:32:17.191Z,2.20
2018-07-08T06:34:53.409Z,1.85
2018-07-08T06:37:27.567Z,1.77
2018-07-08T06:40:01.200Z,1.72
2018-07-08T06:42:35.474Z,1.87
2018-07-08T06:45:08.860Z,2.00
2018-07-08T06:47:41.415Z,2.25
2018-07-08T06:50:15.303Z,2.20
2018-07-08T06:52:49.522Z,2.22
2018-07-08T06:55:21.918Z,1.87
2018-07-08T06:57:55.632Z,2.25
2018-07-08T07:00:31.572Z,2.20
2018-07-08T07:03:05.154Z,2.10
2018-07-08T07:05:40.234Z,1.98
2018-07-08T07:08:14.227Z,1.80
2018-07-08T07:10:47.842Z,1.92
2018-07-08T07:13:21.726Z,1.98
2018-07-08T07:15:55.561Z,2.50
2018-07-08T07:18:29.776Z,2.02
2018-07-08T07:21:04.997Z,2.05
2018-07-08T07:23:39.337Z,1.95
2018-07-08T07:26:13.179Z,2.60
2018-07-08T07:28:47.289Z,2.00
2018-07-08T07:31:21.391Z,2.20
2018-07-08T07:33:55.480Z,2.30
2018-07-08T07:36:30.184Z,2.20
2018-07-08T07:39:04.408Z,2.02
2018-07-08T07:41:36.918Z,2.53
2018-07-08T07:44:10.527Z,2.20
2018-07-08T07:46:44.350Z,2.07
2018-07-08T07:49:18.902Z,2.57
2018-07-08T07:51:53.329Z,2.37
2018-07-08T07:54:27.613Z,2.47
2018-07-08T07:57:01.249Z,1.90
2018-07-08T07:59:36.453Z,2.14
2018-07-08T08:02:11.846Z,2.00
2018-07-08T08:04:44.100Z,2.25
2018-07-08T08:07:16.558Z,2.35
2018-07-08T08:09:50.181Z,2.20
2018-07-08T08:12:24.190Z,2.23
2018-07-08T08:14:58.639Z,2.12
2018-07-08T08:17:32.377Z,2.60
2018-07-08T08:20:06.237Z,2.47
2018-07-08T08:22:40.345Z,2.45
2018-07-08T08:25:14.308Z,2.27
2018-07-08T08:27:48.166Z,2.35
2018-07-08T08:30:20.672Z,2.40
2018-07-08T08:32:54.785Z,2.30
2018-07-08T08:35:28.476Z,1.90
2018-07-08T08:38:00.837Z,2.10
2018-07-08T08:40:36.262Z,2.10
2018-07-08T09:05:53.974Z,2.58
2018-07-08T09:08:29.589Z,1.80
2018-07-08T09:11:03.792Z,2.20
2018-07-08T09:13:36.761Z,2.60
2018-07-08T09:16:10.609Z,2.50
2018-07-08T09:18:44.413Z,2.40
2018-07-08T09:21:18.957Z,2.70
2018-07-08T09:23:52.543Z,2.20
2018-07-08T09:26:24.870Z,3.20
2018-07-08T09:28:59.962Z,2.58
2018-07-08T09:31:33.618Z,2.37
2018-07-08T09:34:07.367Z,2.30
2018-07-08T09:36:41.084Z,2.45
2018-07-08T09:39:16.797Z,2.00
2018-07-08T09:41:50.926Z,2.72
2018-07-08T09:44:24.981Z,2.27
2018-07-08T09:46:58.684Z,2.63
2018-07-08T09:49:32.882Z,3.30
2018-07-08T09:52:06.491Z,3.13
2018-07-08T09:54:40.286Z,3.70
2018-07-08T09:57:13.968Z,3.75
2018-07-08T09:59:47.836Z,2.98
2018-07-08T10:02:22.195Z,2.90
2018-07-08T10:04:56.008Z,3.00
2018-07-08T10:07:31.002Z,2.90
2018-07-08T10:10:08.824Z,2.43
2018-07-08T10:12:42.522Z,2.37
2018-07-08T10:15:16.638Z,2.55
2018-07-08T10:17:50.175Z,3.03
2018-07-08T10:20:23.870Z,3.17
2018-07-08T10:22:57.421Z,3.60
2018-07-08T10:25:30.945Z,2.93
2018-07-08T10:28:21.820Z,3.02
2018-07-08T10:30:56.027Z,2.97
2018-07-08T10:33:28.506Z,2.92
2018-07-08T10:36:04.543Z,3.03
2018-07-08T10:38:37.027Z,2.50
2018-07-08T10:41:10.948Z,3.00
2018-07-08T10:43:45.183Z,2.50
2018-07-08T10:46:18.593Z,3.42
2018-07-08T10:48:52.677Z,3.47
2018-07-08T10:51:26.794Z,3.50
2018-07-08T10:54:00.815Z,2.83
2018-07-08T10:56:34.589Z,3.30
2018-07-08T10:59:08.769Z,3.03
2018-07-08T11:01:43.524Z,2.67
2018-07-08T11:04:17.564Z,3.10
2018-07-08T11:06:51.498Z,3.37
2018-07-08T11:09:25.485Z,4.30
2018-07-08T11:12:01.147Z,5.42
2018-07-08T11:14:35.217Z,5.08
2018-07-08T11:17:09.352Z,5.80
2018-07-08T11:19:43.300Z,5.60
2018-07-08T11:22:17.573Z,5.67
2018-07-08T11:24:51.115Z,5.97
2018-07-08T11:27:25.127Z,7.13
2018-07-08T11:29:58.716Z,6.20
2018-07-08T11:32:32.818Z,5.80
2018-07-08T11:35:06.638Z,5.87
2018-07-08T11:37:40.713Z,6.60
2018-07-08T11:40:14.631Z,6.85
2018-07-08T11:42:47.134Z,5.80
2018-07-08T11:45:20.730Z,6.87
2018-07-08T11:47:54.786Z,6.13
2018-07-08T11:50:28.795Z,6.47
2018-07-08T11:53:03.678Z,5.67
2018-07-08T11:55:37.549Z,8.13
2018-07-08T11:58:09.665Z,17.05
2018-07-08T12:00:43.227Z,32.03
2018-07-08T12:03:17.879Z,35.00
2018-07-08T12:05:51.844Z,23.00
2018-07-08T12:08:26.308Z,14.23
2018-07-08T12:11:00.128Z,9.03
2018-07-08T12:13:35.378Z,6.53
2018-07-08T12:16:09.213Z,4.97
2018-07-08T12:18:42.755Z,4.20
2018-07-08T12:21:17.085Z,3.43
2018-07-08T12:23:50.495Z,3.77
2018-07-08T12:26:25.020Z,4.73
2018-07-08T12:28:58.507Z,6.23
2018-07-08T12:31:32.015Z,7.87
2018-07-08T12:34:06.511Z,9.27
2018-07-08T12:36:40.877Z,10.37
2018-07-08T12:39:16.497Z,9.27
2018-07-08T12:41:49.972Z,8.23
2018-07-08T12:44:24.425Z,6.13
2018-07-08T12:47:02.654Z,5.60
2018-07-08T12:49:36.763Z,5.50
2018-07-08T12:52:13.298Z,5.60
2018-07-08T12:54:48.118Z,5.93
2018-07-08T12:57:22.277Z,5.33
2018-07-08T12:59:58.207Z,6.03
2018-07-08T13:02:31.215Z,5.10
2018-07-08T13:05:05.494Z,5.57
2018-07-08T13:07:39.314Z,5.10
2018-07-08T13:10:12.877Z,4.80
2018-07-08T13:12:46.675Z,5.53
2018-07-08T13:15:22.071Z,4.90
2018-07-08T13:17:58.359Z,5.37
2018-07-08T13:20:32.404Z,5.70
2018-07-08T13:23:06.883Z,5.47
2018-07-08T13:25:40.397Z,5.47
2018-07-08T13:28:15.098Z,5.57
2018-07-08T13:30:49.061Z,5.33
2018-07-08T13:33:23.600Z,5.80
2018-07-08T13:35:56.998Z,6.77
2018-07-08T13:38:30.625Z,7.00
2018-07-08T13:41:05.360Z,6.23
2018-07-08T13:43:39.827Z,6.03
2018-07-08T13:46:14.272Z,5.78
2018-07-08T13:48:48.210Z,6.07
2018-07-08T13:51:22.025Z,5.93
2018-07-08T13:53:55.883Z,8.83
2018-07-08T13:56:30.108Z,8.70
2018-07-08T13:59:03.914Z,8.63
2018-07-08T14:01:37.710Z,7.27
2018-07-08T14:04:11.513Z,6.58
2018-07-08T14:06:45.595Z,6.97
2018-07-08T14:09:19.431Z,5.72
2018-07-08T14:11:53.659Z,6.03
2018-07-08T14:14:27.302Z,5.53
2018-07-08T14:17:02.293Z,5.77
2018-07-08T14:19:35.968Z,5.60
2018-07-08T14:22:10.034Z,5.10
2018-07-08T14:24:43.792Z,5.40
2018-07-08T14:27:18.848Z,5.67
2018-07-08T14:29:52.387Z,5.80
2018-07-08T14:32:26.545Z,5.80
2018-07-08T14:35:00.397Z,6.00
2018-07-08T14:37:34.879Z,5.60
2018-07-08T14:40:08.534Z,5.47
2018-07-08T14:42:42.659Z,6.30
2018-07-08T14:45:16.548Z,7.20
2018-07-08T14:47:49.992Z,6.37
2018-07-08T14:50:24.029Z,7.07
2018-07-08T14:52:57.927Z,6.30
2018-07-08T14:55:31.593Z,6.00
2018-07-08T14:58:05.942Z,4.90
2018-07-08T15:00:40.136Z,3.97
2018-07-08T15:03:12.576Z,2.87
2018-07-08T15:05:46.366Z,3.07
2018-07-08T15:08:19.769Z,2.62
2018-07-08T15:10:53.797Z,2.87
2018-07-08T15:13:27.425Z,2.60
2018-07-08T15:16:01.663Z,2.43
2018-07-08T15:18:38.378Z,2.80
2018-07-08T15:21:12.306Z,2.80
2018-07-08T15:23:46.271Z,3.00
2018-07-08T15:26:20.127Z,3.13
2018-07-08T15:28:54.808Z,2.77
2018-07-08T15:31:28.481Z,2.70
2018-07-08T15:34:03.975Z,2.67
2018-07-08T15:36:39.938Z,2.67
2018-07-08T15:39:13.419Z,2.67
2018-07-08T15:41:47.482Z,3.13
2018-07-08T15:44:21.181Z,2.70
2018-07-08T15:46:55.246Z,2.60
2018-07-08T15:49:29.464Z,2.57
2018-07-08T15:52:03.198Z,2.53
2018-07-08T15:54:37.057Z,2.57
2018-07-08T15:57:11.018Z,3.10
2018-07-08T15:59:45.836Z,2.50
2018-07-08T16:02:19.763Z,2.70
2018-07-08T16:04:54.000Z,3.10
2018-07-08T16:07:27.509Z,3.07
2018-07-08T16:10:00.078Z,3.17
2018-07-08T16:12:33.585Z,2.57
2018-07-08T16:15:07.877Z,2.10
2018-07-08T16:17:41.732Z,2.47
2018-07-08T16:20:16.653Z,2.67
2018-07-08T16:22:50.806Z,2.53
2018-07-08T16:25:23.438Z,2.33
2018-07-08T16:27:57.176Z,2.30
2018-07-08T17:07:09.361Z,2.27
2018-07-08T17:09:43.297Z,1.93
2018-07-08T17:12:17.178Z,2.03
2018-07-08T17:14:50.962Z,2.45
2018-07-08T17:17:24.910Z,3.07
2018-07-08T17:19:58.898Z,2.98
2018-07-08T17:22:34.910Z,2.67
2018-07-08T17:25:09.028Z,2.80
2018-07-08T17:27:42.112Z,2.47
2018-07-08T17:30:16.315Z,2.60
2018-07-08T17:32:50.099Z,2.40
2018-07-08T17:35:23.568Z,2.40
2018-07-08T17:37:57.515Z,2.73
2018-07-08T17:40:31.068Z,2.37
2018-07-08T17:43:07.056Z,2.40
2018-07-08T17:45:41.158Z,2.13
2018-07-08T17:48:14.823Z,2.20
2018-07-08T17:50:49.972Z,1.83
2018-07-08T17:53:22.214Z,2.30
2018-07-08T17:55:56.295Z,2.10
2018-07-08T17:58:30.479Z,2.10
2018-07-08T18:01:02.736Z,2.30
2018-07-08T18:03:36.159Z,2.20
2018-07-08T18:06:08.084Z,2.07
2018-07-08T18:08:42.570Z,1.83
2018-07-08T18:11:17.432Z,2.27
2018-07-08T18:13:51.232Z,1.87
2018-07-08T18:16:25.396Z,2.47
2018-07-08T18:19:00.105Z,2.00
2018-07-08T18:21:32.349Z,2.00
2018-07-08T18:24:07.707Z,2.00
2018-07-08T18:26:39.998Z,1.70
2018-07-08T18:29:15.195Z,1.90
2018-07-08T18:31:49.341Z,1.87
2018-07-08T18:34:23.442Z,2.33
2018-07-08T18:36:57.555Z,1.73
2018-07-08T18:39:31.134Z,1.60
2018-07-08T18:42:05.515Z,2.17
2018-07-08T18:44:39.475Z,2.00
2018-07-08T18:47:13.654Z,1.77
2018-07-08T18:49:47.305Z,2.10
2018-07-08T18:52:21.367Z,2.00
2018-07-08T18:54:55.350Z,1.87
2018-07-08T18:57:27.755Z,2.33
2018-07-08T19:00:01.593Z,2.00
2018-07-08T19:02:35.427Z,1.62
2018-07-08T19:05:09.720Z,1.60
2018-07-08T19:07:43.397Z,1.90
2018-07-08T19:10:18.123Z,1.80
2018-07-08T19:12:51.753Z,2.13
2018-07-08T19:15:25.375Z,1.90
2018-07-08T19:17:59.266Z,2.13
2018-07-08T19:20:33.309Z,1.70
2018-07-08T19:23:20.834Z,1.80
2018-07-08T19:25:55.696Z,2.37
2018-07-08T19:28:29.572Z,1.80
2018-07-08T19:31:03.549Z,1.83
2018-07-08T19:33:37.168Z,1.50
2018-07-08T19:36:11.097Z,2.07
2018-07-08T19:38:44.893Z,1.67
2018-07-08T19:41:18.438Z,2.27
2018-07-08T19:43:52.713Z,2.00
2018-07-08T19:46:26.319Z,2.07
2018-07-08T19:49:00.154Z,2.40
2018-07-08T19:51:35.155Z,1.97
2018-07-08T19:54:07.436Z,2.10
2018-07-08T19:56:39.872Z,2.13
2018-07-08T19:59:13.375Z,1.60
2018-07-08T20:01:47.525Z,2.40
2018-07-08T20:04:21.264Z,1.90
2018-07-08T20:06:55.841Z,1.90
2018-07-08T20:09:29.551Z,2.10
2018-07-08T20:12:03.411Z,2.27
2018-07-08T20:14:37.291Z,2.10
2018-07-08T20:17:11.258Z,1.92
2018-07-08T20:19:44.973Z,2.08
2018-07-08T20:22:18.554Z,1.87
2018-07-08T20:24:52.834Z,2.37
2018-07-08T20:27:28.249Z,1.70
2018-07-08T20:30:02.825Z,2.20
2018-07-08T20:32:36.494Z,2.27
2018-07-08T20:35:10.397Z,1.83
2018-07-08T20:37:44.323Z,2.50
2018-07-08T20:40:18.596Z,1.60
2018-07-08T20:42:52.264Z,2.00
2018-07-08T20:45:26.434Z,1.77
2018-07-08T20:47:59.823Z,2.20
2018-07-08T20:50:34.348Z,1.80
2018-07-08T20:53:07.856Z,1.93
2018-07-08T20:55:42.132Z,1.90
2018-07-08T20:58:15.715Z,1.90
2018-07-08T21:00:50.412Z,1.90
2018-07-08T21:03:23.919Z,2.22
2018-07-08T21:05:57.745Z,1.77
2018-07-08T21:08:32.017Z,2.10
2018-07-08T21:11:06.841Z,2.03
2018-07-08T21:13:40.660Z,2.23
2018-07-08T21:16:14.620Z,1.67
2018-07-08T21:18:48.766Z,2.00
2018-07-08T21:21:22.873Z,1.70
2018-07-08T21:23:56.733Z,1.60
2018-07-08T21:26:29.640Z,1.90
2018-07-08T21:29:03.849Z,1.90
2018-07-08T21:31:37.963Z,1.90
2018-07-08T21:34:12.094Z,1.73
2018-07-08T21:36:45.521Z,1.87
2018-07-08T21:39:19.201Z,1.97
2018-07-08T21:41:53.093Z,2.03
2018-07-08T21:44:26.813Z,2.23
2018-07-08T21:47:01.240Z,1.80
2018-07-08T21:49:35.235Z,1.90
2018-07-08T21:52:09.123Z,2.27
2018-07-08T21:54:42.945Z,2.10
2018-07-08T21:57:17.608Z,2.17
2018-07-08T21:59:51.625Z,2.10
2018-07-08T22:02:24.643Z,3.40
2018-07-08T22:04:58.801Z,2.07
2018-07-08T22:08:34.839Z,2.57
2018-07-08T22:11:09.737Z,1.98
2018-07-08T22:13:44.409Z,2.83
2018-07-08T22:16:18.685Z,1.67
2018-07-08T22:18:52.462Z,2.27
2018-07-08T22:21:26.623Z,1.77
2018-07-08T22:24:00.233Z,2.80
2018-07-08T22:26:34.060Z,1.97
2018-07-08T22:29:08.802Z,1.70
2018-07-08T22:31:40.923Z,1.73
2018-07-08T22:34:14.863Z,2.50
2018-07-08T22:36:49.249Z,1.70
2018-07-08T22:39:23.503Z,2.17
2018-07-08T22:41:56.150Z,1.62
2018-07-08T22:44:29.750Z,1.83
2018-07-08T22:47:04.801Z,2.30
2018-07-08T22:49:38.615Z,1.77
2018-07-08T22:52:13.195Z,2.27
2018-07-08T22:54:47.413Z,1.97
2018-07-08T22:57:21.492Z,2.20
2018-07-08T23:00:03.644Z,1.90
2018-07-08T23:02:44.156Z,1.97
2018-07-08T23:05:18.643Z,1.60
2018-07-08T23:07:52.475Z,2.27
2018-07-08T23:10:24.868Z,2.75
2018-07-08T23:12:58.587Z,2.80
2018-07-08T23:15:32.664Z,1.97
2018-07-08T23:18:06.334Z,2.10
2018-07-08T23:20:41.296Z,2.37
2018-07-08T23:23:15.073Z,2.13
2018-07-08T23:25:49.505Z,2.70
2018-07-08T23:28:23.627Z,2.10
2018-07-08T23:30:58.830Z,2.37
2018-07-08T23:33:32.688Z,2.25
2018-07-08T23:36:07.182Z,2.93
2018-07-08T23:38:41.052Z,2.60
2018-07-08T23:41:14.935Z,2.00
2018-07-08T23:43:47.483Z,2.37
2018-07-08T23:46:21.376Z,2.50
2018-07-08T23:48:55.411Z,2.20
2018-07-08T23:51:29.016Z,2.97
2018-07-08T23:54:02.850Z,2.62
2018-07-08T23:56:36.726Z,2.30
2018-07-08T23:59:11.166Z,2.40
